createdAt,value
2018-12-09T00:00:05.792Z,7.30
2018-12-09T00:02:34.330Z,4.85
2018-12-09T00:05:03.624Z,5.72
2018-12-09T00:07:32.273Z,4.65
2018-12-09T00:10:00.673Z,4.50
2018-12-09T00:12:29.054Z,3.77
2018-12-09T00:14:57.416Z,5.12
2018-12-09T00:17:25.816Z,5.05
2018-12-09T00:19:54.467Z,6.47
2018-12-09T00:22:22.839Z,5.65
2018-12-09T00:24:51.221Z,6.55
2018-12-09T00:27:19.614Z,4.92
2018-12-09T00:29:47.983Z,5.33
2018-12-09T00:32:16.672Z,4.92
2018-12-09T00:34:45.081Z,5.25
2018-12-09T00:37:13.458Z,5.35
2018-12-09T00:39:41.856Z,5.12
2018-12-09T00:42:10.230Z,4.37
2018-12-09T00:44:38.611Z,4.92
2018-12-09T00:47:06.984Z,6.08
2018-12-09T00:49:35.370Z,4.33
2018-12-09T00:52:04.159Z,6.12
2018-12-09T00:54:32.571Z,5.00
2018-12-09T00:57:00.958Z,5.75
2018-12-09T00:59:29.329Z,5.72
2018-12-09T01:01:57.851Z,5.50
2018-12-09T01:04:26.227Z,4.90
2018-12-09T01:06:54.723Z,3.62
2018-12-09T01:09:23.139Z,5.60
2018-12-09T01:11:51.503Z,5.72
2018-12-09T01:14:19.862Z,6.28
2018-12-09T01:16:48.245Z,4.17
2018-12-09T01:19:16.766Z,5.22
2018-12-09T01:21:45.432Z,5.65
2018-12-09T01:24:13.832Z,3.58
2018-12-09T01:26:42.264Z,5.00
2018-12-09T01:29:10.926Z,3.80
2018-12-09T01:31:39.316Z,6.22
2018-12-09T01:34:07.682Z,6.67
2018-12-09T01:36:36.109Z,4.97
2018-12-09T01:39:06.313Z,4.35
2018-12-09T01:41:34.694Z,5.10
2018-12-09T01:44:03.192Z,4.87
2018-12-09T01:46:32.026Z,4.33
2018-12-09T01:49:00.466Z,7.28
2018-12-09T01:51:28.843Z,5.05
2018-12-09T01:54:09.183Z,4.65
2018-12-09T01:56:37.917Z,6.25
2018-12-09T01:59:06.427Z,5.97
2018-12-09T02:01:34.834Z,4.85
2018-12-09T02:04:03.245Z,3.95
2018-12-09T02:06:32.160Z,6.83
2018-12-09T02:09:00.684Z,4.72
2018-12-09T02:11:29.204Z,6.20
2018-12-09T02:13:57.594Z,5.37
2018-12-09T02:16:26.129Z,5.45
2018-12-09T02:19:05.831Z,4.85
2018-12-09T02:21:34.231Z,5.22
2018-12-09T02:24:02.606Z,6.40
2018-12-09T02:26:30.979Z,5.78
2018-12-09T02:28:59.381Z,7.15
2018-12-09T02:31:28.063Z,5.72
2018-12-09T02:33:56.442Z,7.20
2018-12-09T02:36:25.218Z,5.70
2018-12-09T02:38:53.641Z,3.83
2018-12-09T02:41:22.020Z,5.22
2018-12-09T02:43:50.551Z,4.20
2018-12-09T02:46:19.001Z,3.95
2018-12-09T02:48:47.801Z,3.70
2018-12-09T02:53:44.980Z,2.90
2018-12-09T02:56:13.721Z,4.30
2018-12-09T02:58:42.428Z,4.05
2018-12-09T03:01:10.855Z,5.35
2018-12-09T03:03:39.213Z,4.45
2018-12-09T03:06:07.581Z,3.65
2018-12-09T03:08:35.990Z,4.25
2018-12-09T03:11:05.255Z,3.90
2018-12-09T03:13:33.835Z,3.72
2018-12-09T03:16:02.313Z,3.87
2018-12-09T03:18:30.669Z,3.45
2018-12-09T03:20:59.054Z,4.78
2018-12-09T03:23:27.448Z,4.70
2018-12-09T03:25:55.820Z,4.00
2018-12-09T03:28:24.210Z,4.60
2018-12-09T03:30:52.604Z,4.25
2018-12-09T03:33:20.992Z,3.85
2018-12-09T03:35:49.373Z,3.50
2018-12-09T03:38:17.784Z,4.97
2018-12-09T03:40:46.298Z,3.30
2018-12-09T03:43:14.672Z,4.75
2018-12-09T03:45:43.757Z,3.15
2018-12-09T03:48:12.294Z,4.42
2018-12-09T03:50:40.680Z,3.83
2018-12-09T03:53:09.089Z,4.17
2018-12-09T03:55:37.720Z,4.10
2018-12-09T03:58:06.267Z,3.72
2018-12-09T04:00:34.770Z,3.30
2018-12-09T04:03:03.146Z,3.27
2018-12-09T04:05:31.620Z,3.35
2018-12-09T04:08:00.038Z,3.20
2018-12-09T04:10:28.528Z,4.08
2018-12-09T04:12:56.891Z,2.87
2018-12-09T04:15:25.340Z,3.40
2018-12-09T04:17:53.725Z,6.05
2018-12-09T04:20:22.721Z,4.03
2018-12-09T04:22:51.136Z,3.70
2018-12-09T04:25:19.509Z,3.35
2018-12-09T04:27:48.073Z,2.80
2018-12-09T04:30:16.482Z,3.80
2018-12-09T04:32:44.968Z,3.37
2018-12-09T04:35:13.532Z,3.72
2018-12-09T04:37:41.924Z,3.10
2018-12-09T04:40:10.696Z,3.20
2018-12-09T04:42:39.082Z,5.03
2018-12-09T04:45:07.648Z,2.85
2018-12-09T04:47:36.033Z,3.17
2018-12-09T04:50:05.744Z,3.35
2018-12-09T04:52:34.151Z,2.90
2018-12-09T04:55:03.258Z,4.08
2018-12-09T04:57:31.995Z,4.05
2018-12-09T05:00:11.832Z,5.47
2018-12-09T05:02:40.235Z,3.45
2018-12-09T05:05:09.160Z,3.12
2018-12-09T05:07:37.838Z,3.62
2018-12-09T05:10:06.778Z,3.65
2018-12-09T05:12:35.157Z,2.83
2018-12-09T05:15:03.685Z,2.90
2018-12-09T05:17:32.123Z,3.37
2018-12-09T05:20:00.505Z,3.87
2018-12-09T05:22:29.066Z,2.58
2018-12-09T05:24:57.472Z,5.65
2018-12-09T05:27:25.863Z,2.75
2018-12-09T05:29:54.510Z,4.47
2018-12-09T05:32:22.903Z,3.10
2018-12-09T05:34:51.555Z,3.05
2018-12-09T05:37:20.138Z,3.10
2018-12-09T05:39:49.064Z,3.12
2018-12-09T05:42:17.462Z,3.85
2018-12-09T05:44:45.862Z,2.87
2018-12-09T05:47:14.250Z,2.58
2018-12-09T05:49:42.626Z,4.47
2018-12-09T05:52:11.553Z,4.15
2018-12-09T05:54:40.112Z,4.47
2018-12-09T05:57:08.480Z,2.50
2018-12-09T05:59:36.871Z,4.40
2018-12-09T06:02:16.370Z,3.62
2018-12-09T06:04:45.027Z,3.25
2018-12-09T06:07:13.413Z,2.62
2018-12-09T06:09:41.783Z,3.50
2018-12-09T06:12:10.457Z,3.70
2018-12-09T06:14:39.475Z,3.80
2018-12-09T06:17:07.853Z,2.10
2018-12-09T06:19:36.490Z,2.90
2018-12-09T06:22:04.863Z,5.12
2018-12-09T06:24:33.221Z,3.02
2018-12-09T06:27:01.688Z,2.35
2018-12-09T06:29:30.342Z,2.80
2018-12-09T06:31:58.717Z,2.83
2018-12-09T06:34:27.109Z,3.55
2018-12-09T06:36:55.807Z,2.67
2018-12-09T06:39:24.218Z,3.58
2018-12-09T06:41:52.616Z,3.77
2018-12-09T06:44:21.009Z,2.40
2018-12-09T06:46:49.515Z,4.00
2018-12-09T06:49:18.420Z,3.60
2018-12-09T06:51:47.275Z,3.10
2018-12-09T06:54:15.676Z,4.35
2018-12-09T06:56:44.373Z,4.03
2018-12-09T06:59:12.743Z,3.50
2018-12-09T07:01:41.538Z,2.55
2018-12-09T07:04:09.923Z,3.10
2018-12-09T07:06:38.305Z,1.92
2018-12-09T07:09:07.209Z,2.62
2018-12-09T07:11:35.643Z,3.40
2018-12-09T07:14:04.658Z,3.87
2018-12-09T07:16:33.020Z,2.80
2018-12-09T07:19:01.407Z,2.70
2018-12-09T07:21:29.858Z,4.78
2018-12-09T07:23:58.244Z,3.85
2018-12-09T07:26:27.163Z,3.33
2018-12-09T07:28:55.550Z,3.20
2018-12-09T07:31:23.948Z,3.92
2018-12-09T07:33:52.361Z,3.60
2018-12-09T07:36:20.961Z,4.30
2018-12-09T07:38:49.650Z,4.65
2018-12-09T07:41:18.056Z,3.92
2018-12-09T07:43:46.414Z,3.83
2018-12-09T07:46:15.244Z,4.53
2018-12-09T07:48:43.801Z,3.95
2018-12-09T07:51:12.804Z,4.72
2018-12-09T07:53:41.181Z,2.98
2018-12-09T07:56:09.576Z,4.25
2018-12-09T07:58:38.259Z,4.12
2018-12-09T08:01:06.639Z,4.45
2018-12-09T08:03:35.238Z,2.80
2018-12-09T08:06:03.896Z,4.80
2018-12-09T08:08:32.603Z,4.42
2018-12-09T08:11:01.225Z,3.77
2018-12-09T08:13:29.605Z,3.60
2018-12-09T08:15:57.972Z,4.72
2018-12-09T08:18:26.455Z,6.10
2018-12-09T08:20:54.817Z,3.47
2018-12-09T08:23:23.251Z,5.92
2018-12-09T08:25:51.897Z,4.40
2018-12-09T08:28:20.566Z,2.12
2018-12-09T08:30:48.955Z,5.70
2018-12-09T08:33:17.429Z,5.22
2018-12-09T08:35:45.789Z,3.55
2018-12-09T08:38:14.161Z,5.65
2018-12-09T08:40:42.558Z,4.60
2018-12-09T08:43:10.940Z,2.70
2018-12-09T08:45:39.500Z,4.22
2018-12-09T08:48:07.909Z,5.12
2018-12-09T08:50:36.325Z,4.90
2018-12-09T08:53:04.856Z,4.70
2018-12-09T08:55:33.703Z,5.60
2018-12-09T08:58:02.084Z,5.50
2018-12-09T09:00:30.874Z,3.67
2018-12-09T09:02:59.284Z,4.92
2018-12-09T09:05:27.788Z,4.10
2018-12-09T09:07:56.474Z,5.00
2018-12-09T09:10:24.890Z,4.70
2018-12-09T09:12:53.261Z,3.90
2018-12-09T09:15:21.627Z,4.78
2018-12-09T09:17:50.046Z,4.37
2018-12-09T09:20:18.434Z,6.95
2018-12-09T09:22:46.981Z,4.47
2018-12-09T09:25:15.733Z,5.33
2018-12-09T09:27:44.103Z,7.20
2018-12-09T09:30:12.481Z,4.22
2018-12-09T09:32:40.991Z,4.60
2018-12-09T09:35:09.803Z,7.15
2018-12-09T09:37:38.554Z,1.82
2018-12-09T09:40:08.479Z,0.90
2018-12-09T09:42:36.893Z,1.20
2018-12-09T09:45:06.683Z,0.72
2018-12-09T09:47:35.132Z,0.60
2018-12-09T09:50:04.051Z,1.35
2018-12-09T09:52:32.548Z,1.72
2018-12-09T09:55:00.995Z,2.12
2018-12-09T09:57:29.632Z,0.88
2018-12-09T09:59:58.280Z,1.05
2018-12-09T10:02:26.990Z,0.80
2018-12-09T10:04:55.397Z,1.07
2018-12-09T10:07:24.113Z,0.60
2018-12-09T10:09:52.531Z,1.70
2018-12-09T10:12:21.158Z,1.82
2018-12-09T10:14:49.846Z,1.10
2018-12-09T10:17:18.484Z,0.75
2018-12-09T10:19:46.848Z,1.12
2018-12-09T10:22:15.212Z,0.62
2018-12-09T10:24:43.648Z,1.25
2018-12-09T10:27:12.040Z,0.93
2018-12-09T10:29:40.392Z,0.98
2018-12-09T10:32:08.788Z,0.88
2018-12-09T10:34:38.946Z,1.30
2018-12-09T10:37:07.584Z,2.20
2018-12-09T10:39:36.032Z,1.20
2018-12-09T10:42:04.879Z,1.65
2018-12-09T10:44:33.413Z,1.55
2018-12-09T10:47:01.829Z,2.20
2018-12-09T10:49:30.203Z,1.85
2018-12-09T10:51:58.571Z,2.10
2018-12-09T10:54:26.957Z,1.85
2018-12-09T10:56:55.339Z,2.15
2018-12-09T10:59:23.725Z,0.75
2018-12-09T11:01:55.713Z,0.90
2018-12-09T11:04:24.233Z,1.32
2018-12-09T11:06:52.611Z,1.90
2018-12-09T11:09:21.224Z,1.22
2018-12-09T11:11:49.639Z,2.08
2018-12-09T11:14:17.999Z,1.98
2018-12-09T11:16:46.696Z,1.50
2018-12-09T11:19:15.077Z,1.70
2018-12-09T11:21:43.565Z,1.25
2018-12-09T11:24:12.019Z,2.15
2018-12-09T11:26:40.391Z,1.55
2018-12-09T11:29:08.744Z,1.02
2018-12-09T11:31:37.302Z,1.47
2018-12-09T11:34:05.981Z,2.02
2018-12-09T11:36:34.353Z,2.77
2018-12-09T11:39:03.652Z,2.37
2018-12-09T11:41:32.038Z,2.52
2018-12-09T11:44:00.395Z,2.52
2018-12-09T11:46:28.810Z,2.87
2018-12-09T11:48:57.211Z,3.83
2018-12-09T11:51:25.864Z,3.75
2018-12-09T11:53:54.317Z,2.60
2018-12-09T11:56:22.878Z,2.65
2018-12-09T11:58:51.308Z,4.10
2018-12-09T12:01:19.714Z,3.20
2018-12-09T12:03:48.137Z,4.08
2018-12-09T12:06:16.529Z,3.40
2018-12-09T12:08:45.033Z,3.45
2018-12-09T12:11:13.640Z,3.45
2018-12-09T12:13:42.025Z,3.30
2018-12-09T12:16:10.421Z,3.75
2018-12-09T12:18:38.873Z,3.75
2018-12-09T12:21:07.269Z,5.00
2018-12-09T12:23:35.641Z,3.65
2018-12-09T12:26:04.780Z,3.72
2018-12-09T12:28:33.375Z,4.75
2018-12-09T12:31:01.812Z,3.35
2018-12-09T12:33:30.175Z,3.58
2018-12-09T12:35:58.548Z,3.77
2018-12-09T12:38:27.854Z,5.65
2018-12-09T12:40:56.230Z,3.67
2018-12-09T12:43:25.040Z,4.40
2018-12-09T12:45:53.474Z,4.83
2018-12-09T12:48:22.016Z,3.40
2018-12-09T12:50:50.507Z,2.12
2018-12-09T12:53:18.916Z,1.80
2018-12-09T12:55:47.287Z,1.55
2018-12-09T12:58:15.683Z,1.80
2018-12-09T13:00:44.073Z,2.42
2018-12-09T13:03:12.438Z,2.58
2018-12-09T13:05:41.197Z,3.30
2018-12-09T13:08:09.986Z,2.65
2018-12-09T13:10:38.390Z,1.55
2018-12-09T13:13:06.754Z,3.05
2018-12-09T13:15:35.424Z,2.40
2018-12-09T13:18:03.934Z,2.50
2018-12-09T13:20:32.439Z,1.92
2018-12-09T13:23:01.583Z,2.80
2018-12-09T13:25:30.735Z,2.58
2018-12-09T13:27:59.605Z,2.70
2018-12-09T13:30:27.999Z,1.95
2018-12-09T13:32:56.379Z,1.87
2018-12-09T13:35:24.961Z,5.87
2018-12-09T13:37:53.370Z,3.15
2018-12-09T13:40:21.741Z,2.58
2018-12-09T13:42:50.104Z,2.05
2018-12-09T13:45:18.508Z,3.15
2018-12-09T13:47:46.889Z,1.52
2018-12-09T13:50:15.899Z,1.47
2018-12-09T13:52:44.485Z,2.22
2018-12-09T13:55:12.937Z,1.90
2018-12-09T13:57:41.490Z,2.42
2018-12-09T14:00:12.813Z,4.35
2018-12-09T14:02:41.195Z,3.52
2018-12-09T14:05:09.802Z,2.83
2018-12-09T14:07:38.262Z,3.42
2018-12-09T14:10:07.069Z,2.75
2018-12-09T14:12:35.757Z,2.30
2018-12-09T14:15:05.047Z,2.58
2018-12-09T14:17:33.418Z,1.35
2018-12-09T14:20:01.906Z,1.77
2018-12-09T14:22:30.314Z,1.62
2018-12-09T14:24:58.924Z,1.98
2018-12-09T14:27:27.445Z,2.22
2018-12-09T14:29:55.912Z,1.70
2018-12-09T14:32:24.334Z,1.45
2018-12-09T14:34:52.714Z,3.65
2018-12-09T14:37:21.477Z,1.67
2018-12-09T14:39:49.856Z,1.85
2018-12-09T14:42:18.213Z,2.22
2018-12-09T14:44:46.611Z,2.12
2018-12-09T14:47:14.982Z,1.98
2018-12-09T14:49:43.341Z,1.72
2018-12-09T14:52:11.749Z,1.70
2018-12-09T14:54:40.125Z,1.87
2018-12-09T14:57:08.494Z,1.50
2018-12-09T14:59:36.892Z,2.35
2018-12-09T15:02:05.387Z,1.50
2018-12-09T15:04:33.925Z,1.32
2018-12-09T15:07:02.564Z,2.00
2018-12-09T15:09:31.562Z,1.47
2018-12-09T15:12:00.481Z,1.87
2018-12-09T15:14:28.885Z,3.58
2018-12-09T15:16:57.254Z,0.95
2018-12-09T15:19:25.662Z,1.50
2018-12-09T15:21:54.084Z,2.62
2018-12-09T15:24:22.452Z,1.60
2018-12-09T15:26:50.808Z,2.55
2018-12-09T15:29:19.205Z,0.98
2018-12-09T15:31:47.816Z,1.77
2018-12-09T15:34:16.223Z,1.25
2018-12-09T15:36:44.619Z,1.57
2018-12-09T15:39:13.005Z,1.20
2018-12-09T15:41:41.378Z,1.45
2018-12-09T15:44:09.840Z,1.45
2018-12-09T15:46:38.211Z,3.20
2018-12-09T15:49:06.722Z,1.62
2018-12-09T15:51:35.177Z,0.90
2018-12-09T15:54:03.655Z,2.05
2018-12-09T15:56:32.033Z,1.92
2018-12-09T15:59:00.464Z,3.50
2018-12-09T16:01:29.117Z,2.80
2018-12-09T16:03:57.846Z,2.52
2018-12-09T16:06:26.510Z,2.05
2018-12-09T16:08:54.884Z,3.92
2018-12-09T16:11:23.559Z,3.05
2018-12-09T16:13:52.216Z,2.20
2018-12-09T16:16:20.600Z,2.92
2018-12-09T16:18:48.993Z,3.00
2018-12-09T16:21:17.715Z,2.83
2018-12-09T16:23:46.265Z,1.30
2018-12-09T16:26:15.111Z,2.12
2018-12-09T16:28:43.524Z,2.58
2018-12-09T16:31:12.092Z,2.83
2018-12-09T16:33:40.769Z,1.70
2018-12-09T16:36:09.189Z,2.50
2018-12-09T16:38:37.547Z,2.45
2018-12-09T16:41:05.954Z,2.72
2018-12-09T16:43:34.335Z,2.30
2018-12-09T16:46:03.306Z,4.58
2018-12-09T16:48:31.676Z,2.85
2018-12-09T16:51:00.089Z,2.15
2018-12-09T16:53:28.485Z,1.95
2018-12-09T16:55:57.480Z,1.47
2018-12-09T16:58:26.143Z,3.25
2018-12-09T17:00:54.528Z,3.70
2018-12-09T17:03:22.905Z,4.25
2018-12-09T17:05:51.315Z,3.52
2018-12-09T17:08:19.686Z,1.75
2018-12-09T17:10:48.036Z,7.15
2018-12-09T17:13:16.446Z,10.95
2018-12-09T17:15:44.818Z,8.00
2018-12-09T17:18:13.225Z,5.05
2018-12-09T17:20:41.721Z,3.30
2018-12-09T17:23:10.102Z,4.20
2018-12-09T17:25:38.487Z,2.30
2018-12-09T17:28:07.052Z,3.65
2018-12-09T17:30:35.441Z,3.17
2018-12-09T17:33:03.911Z,3.15
2018-12-09T17:35:32.314Z,2.87
2018-12-09T17:38:00.890Z,2.20
2018-12-09T17:40:29.278Z,3.72
2018-12-09T17:42:57.975Z,2.72
2018-12-09T17:45:26.368Z,2.67
2018-12-09T17:47:54.749Z,1.57
2018-12-09T17:50:23.184Z,1.80
2018-12-09T17:52:51.577Z,1.85
2018-12-09T17:55:19.970Z,2.40
2018-12-09T17:57:48.383Z,2.00
2018-12-09T18:00:16.779Z,1.65
2018-12-09T18:02:45.192Z,1.50
2018-12-09T18:05:13.730Z,1.37
2018-12-09T18:07:42.124Z,1.77
2018-12-09T18:10:10.623Z,2.12
2018-12-09T18:12:47.672Z,1.90
2018-12-09T18:15:13.952Z,1.80
2018-12-09T18:17:42.610Z,1.77
2018-12-09T18:20:11.526Z,2.05
2018-12-09T18:22:40.026Z,1.40
2018-12-09T18:25:08.476Z,1.80
2018-12-09T18:27:36.857Z,1.45
2018-12-09T18:30:06.102Z,1.87
2018-12-09T18:32:34.782Z,2.25
2018-12-09T18:35:04.202Z,1.35
2018-12-09T18:37:33.440Z,3.00
2018-12-09T18:40:01.978Z,2.27
2018-12-09T18:42:30.632Z,2.02
2018-12-09T18:44:59.312Z,1.90
2018-12-09T18:47:28.130Z,2.87
2018-12-09T18:49:56.541Z,2.58
2018-12-09T18:52:24.989Z,2.60
2018-12-09T18:54:53.385Z,2.42
2018-12-09T18:57:21.909Z,2.95
2018-12-09T18:59:50.867Z,2.60
2018-12-09T19:02:19.278Z,3.40
2018-12-09T19:04:48.859Z,3.67
2018-12-09T19:07:17.374Z,1.85
2018-12-09T19:09:45.798Z,2.92
2018-12-09T19:12:14.348Z,2.60
2018-12-09T19:14:42.726Z,2.85
2018-12-09T19:17:11.137Z,1.40
2018-12-09T19:19:39.829Z,1.80
2018-12-09T19:22:08.515Z,2.15
2018-12-09T19:24:36.946Z,2.85
2018-12-09T19:27:05.508Z,2.22
2018-12-09T19:29:34.370Z,2.40
2018-12-09T19:32:02.828Z,2.42
2018-12-09T19:34:31.218Z,3.02
2018-12-09T19:36:59.936Z,2.27
2018-12-09T19:39:28.331Z,3.55
2018-12-09T19:41:56.737Z,2.45
2018-12-09T19:44:25.299Z,4.37
2018-12-09T19:46:53.723Z,2.87
2018-12-09T19:49:22.145Z,2.65
2018-12-09T19:51:50.530Z,2.50
2018-12-09T19:54:19.061Z,2.60
2018-12-09T19:56:47.522Z,2.30
2018-12-09T19:59:16.010Z,2.42
2018-12-09T20:01:44.421Z,2.95
2018-12-09T20:04:13.065Z,1.70
2018-12-09T20:06:41.458Z,1.57
2018-12-09T20:09:10.236Z,2.15
2018-12-09T20:11:39.077Z,2.42
2018-12-09T20:14:07.812Z,1.72
2018-12-09T20:16:36.357Z,2.20
2018-12-09T20:19:04.746Z,1.92
2018-12-09T20:21:33.253Z,1.12
2018-12-09T20:24:01.950Z,2.15
2018-12-09T20:26:30.366Z,1.80
2018-12-09T20:28:58.735Z,2.35
2018-12-09T20:31:27.456Z,1.98
2018-12-09T20:33:56.095Z,1.65
2018-12-09T20:36:24.461Z,2.75
2018-12-09T20:38:53.201Z,2.50
2018-12-09T20:41:21.836Z,1.57
2018-12-09T20:43:50.215Z,3.22
2018-12-09T20:46:18.612Z,1.62
2018-12-09T20:48:47.639Z,1.17
2018-12-09T20:51:16.248Z,3.10
2018-12-09T20:53:44.630Z,2.77
2018-12-09T20:56:13.112Z,2.55
2018-12-09T20:58:41.715Z,2.35
2018-12-09T21:01:10.117Z,2.27
2018-12-09T21:03:38.520Z,2.45
2018-12-09T21:06:07.183Z,1.40
2018-12-09T21:08:35.992Z,1.98
2018-12-09T21:11:04.706Z,1.92
2018-12-09T21:13:33.082Z,1.75
2018-12-09T21:16:01.658Z,1.75
2018-12-09T21:18:30.024Z,1.80
2018-12-09T21:20:58.403Z,2.30
2018-12-09T21:23:26.823Z,1.98
2018-12-09T21:25:55.724Z,2.00
2018-12-09T21:28:24.437Z,2.15
2018-12-09T21:30:53.069Z,1.12
2018-12-09T21:33:21.759Z,2.90
2018-12-09T21:35:50.143Z,2.40
2018-12-09T21:38:18.632Z,2.10
2018-12-09T21:40:47.278Z,1.42
2018-12-09T21:43:15.694Z,1.52
2018-12-09T21:45:44.091Z,2.20
2018-12-09T21:48:12.575Z,1.10
2018-12-09T21:50:41.370Z,2.52
2018-12-09T21:53:09.761Z,2.55
2018-12-09T21:55:38.231Z,1.50
2018-12-09T21:58:06.675Z,2.30
2018-12-09T22:00:35.050Z,2.67
2018-12-09T22:03:03.417Z,1.40
2018-12-09T22:05:32.576Z,1.45
2018-12-09T22:08:01.041Z,0.95
2018-12-09T22:10:29.422Z,1.47
2018-12-09T22:12:57.917Z,0.70
2018-12-09T22:15:26.874Z,0.85
2018-12-09T22:17:55.423Z,1.05
2018-12-09T22:20:23.916Z,1.25
2018-12-09T22:22:52.474Z,0.80
2018-12-09T22:25:20.832Z,3.12
2018-12-09T22:27:49.224Z,0.70
2018-12-09T22:30:17.641Z,1.17
2018-12-09T22:32:46.288Z,0.93
2018-12-09T22:35:14.650Z,1.40
2018-12-09T22:37:43.108Z,0.72
2018-12-09T22:40:11.857Z,0.90
2018-12-09T22:42:40.729Z,1.17
2018-12-09T22:45:09.230Z,1.17
2018-12-09T22:47:37.595Z,0.93
2018-12-09T22:50:06.629Z,1.27
2018-12-09T22:52:35.005Z,1.47
2018-12-09T22:55:03.492Z,0.98
2018-12-09T22:57:31.867Z,1.00
2018-12-09T23:00:00.281Z,2.50
2018-12-09T23:02:34.214Z,1.45
2018-12-09T23:05:02.766Z,2.52
2018-12-09T23:07:36.921Z,1.10
2018-12-09T23:10:05.514Z,1.60
2018-12-09T23:12:33.872Z,2.52
2018-12-09T23:15:02.220Z,1.20
2018-12-09T23:17:30.706Z,1.27
2018-12-09T23:19:59.321Z,2.67
2018-12-09T23:22:27.696Z,0.95
2018-12-09T23:24:56.063Z,1.02
2018-12-09T23:27:24.492Z,1.42
2018-12-09T23:29:53.463Z,0.90
2018-12-09T23:32:21.841Z,1.77
2018-12-09T23:34:50.212Z,1.12
2018-12-09T23:37:18.624Z,1.25
2018-12-09T23:39:47.017Z,1.85
2018-12-09T23:42:15.392Z,1.67
2018-12-09T23:44:44.046Z,0.57
2018-12-09T23:47:12.466Z,1.50
2018-12-09T23:49:40.819Z,0.82
2018-12-09T23:52:09.179Z,0.93
2018-12-09T23:54:37.581Z,1.05
2018-12-09T23:57:05.940Z,1.00
2018-12-09T23:59:34.304Z,0.93
